Redondo, Valles Caldera, New Mexico Weather observations

Data are for 10 minute period ending at time listed.
 Day   Time   Solar   Ave.   Ave.  Ave.  Vector  Max.   Baro.   Total    
  of    of     Rad.   Air    Rel.  Wind   Wind   Wind  Press.  Precip.   
Year   Day            Temp.  Hum.  Speed  Dir.   Gust                    
2015   (MST)  Kw/m2    F      %     mph   deg.    mph    mb.     in.     
-------------------------------------------------------------------------
  57    7:30   0.08   14.8    90    2.3   281     8.4   681.7    0.00 
  57    7:40   0.09   15.5    90    2.6   277     5.4   681.8    0.00 
  57    7:50   0.09   15.7    90    2.0   266     5.4   681.8    0.00 
  57    8:00   0.10   15.5    90    2.5   279     7.2   681.8    0.00 
  57    8:10   0.19   16.3    88    2.8   256     7.8   681.8    0.00 
  57    8:20   0.22   17.1    86    3.6   258     8.4   681.9    0.00 
  57    8:30   0.23   17.2    86    3.6   260     6.0   682.0    0.00 
  57    8:40   0.26   17.6    84    4.2   254     7.2   682.1    0.00 
  57    8:50   0.24   17.3    86    3.8   228     7.8   682.1    0.00 
  57    9:00   0.42   18.8    82    3.9   226     9.6   682.1    0.00 
  57    9:10   0.41   19.2    79    4.8   226     9.6   682.1    0.00 
  57    9:20   0.28   18.6    81    3.3   247     9.0   682.2    0.00 
  57    9:30   0.36   18.7    82    4.3   238     9.0   682.2    0.00 
  57    9:40   0.39   19.1    78    5.1   206    11.3   682.2    0.00 
  57    9:50   0.49   19.0    79    5.5   212    10.8   682.2    0.00 
  57   10:00   0.52   20.2    75    5.9   219    13.7   682.2    0.00 
  57   10:10   0.35   19.3    76    5.2   220    10.8   682.3    0.00 
  57   10:20   0.35   19.0    81    5.2   250    10.2   682.4    0.00 
  57   10:30   0.35   18.4    84    4.8   235    11.3   682.4    0.00 
  57   10:40   0.47   18.6    84    5.0   238    10.8   682.4    0.00 
  57   10:50   0.47   20.1    77    4.7   247    13.7   682.4    0.00 
  57   11:00   0.50   19.3    82    4.6   236    10.8   682.3    0.00 
  57   11:10   0.65   20.9    75    5.4   256    10.2   682.3    0.00 
  57   11:20   0.79   24.0    68    5.4   254    11.3   682.3    0.00 
  57   11:30   0.54   21.3    75    5.8   273    11.3   682.3    0.00 
  57   11:40   0.55   20.1    76    5.8   268    11.9   682.2    0.00 
  57   11:50   0.53   20.2    76    5.7   270    10.8   682.1    0.00 
  57   12:00   0.62   21.3    73    4.9   262     9.0   682.0    0.00 
  57   12:10   0.49   21.1    72    5.5   240    13.1   681.9    0.00 
  57   12:20   0.57   20.1    77    5.2   247    13.1   681.8    0.00 
  57   12:30   0.57   21.1    72    4.7   267    10.2   681.6    0.00 
  57   12:40   0.44   21.3    73    3.9   236     9.6   681.6    0.00 
  57   12:50   0.33   19.9    77    4.3   253     8.4   681.4    0.00 
  57   13:00   0.37   18.3    83    5.1   232     9.6   681.3    0.00 
  57   13:10   0.47   19.5    78    5.3   216    11.3   681.2    0.00 
  57   13:20   0.31   18.4    79    4.6   199    10.2   681.1    0.00 
  57   13:30   0.46   19.1    78    5.0   209    10.2   680.9    0.00 
  57   13:40   0.78   23.1    66    4.0   226     8.4   680.8    0.00 
  57   13:50   0.71   23.8    60    5.1   202    11.3   680.8    0.00 
  57   14:00   0.71   24.1    62    5.2   259     9.6   680.8    0.00 
  57   14:10   0.59   23.5    60    5.2   260    13.1   680.7    0.00 
  57   14:20   0.52   22.3    64    5.3   227     9.6   680.6    0.00 
  57   14:30   0.49   20.9    67    5.8   212    10.2   680.5    0.00 
  57   14:40   0.52   21.3    69    5.6   213    14.9   680.4    0.00 
  57   14:50   0.46   21.1    72    5.7   207    14.3   680.3    0.00 
  57   15:00   0.46   23.0    68    4.3   209    10.2   680.3    0.00 
  57   15:10   0.31   21.0    75    6.3   234    14.9   680.3    0.00 
  57   15:20   0.16   17.5    85    6.2   215    14.9   680.3    0.00 
  57   15:30   0.34   19.4    81    4.7   220     9.6   680.1    0.00 
  57   15:40   0.38   22.1    68    4.9   243     9.6   680.0    0.00 
  57   15:50   0.28   21.4    73    5.2   202    11.3   680.0    0.00 
  57   16:00   0.13   18.5    83    4.6   231    10.8   680.0    0.00 
  57   16:10   0.16   18.1    87    4.6   225     8.4   680.0    0.00 
  57   16:20   0.13   18.5    86    4.7   240    10.2   680.0    0.00 
  57   16:30   0.09   17.5    88    4.3   211     8.4   679.9    0.00 
  57   16:40   0.10   17.3    88    4.5   225    10.2   679.8    0.00 
  57   16:50   0.11   17.5    86    4.9   207     8.4   679.7    0.00 
  57   17:00   0.10   17.7    85    3.7   206     9.0   679.7    0.00 
  57   17:10   0.07   17.2    84    4.7   193    10.8   679.7    0.00 
  57   17:20   0.05   16.9    84    4.7   221    13.7   679.6    0.00 
  57   17:30   0.03   16.4    86    4.7   246    13.1   679.5    0.00 
  57   17:40   0.01   16.1    89    4.7   258    13.1   679.5    0.00 
  57   17:50   0.01   15.9    91    3.7   280     7.8   679.4    0.00 
  57   18:00   0.00   16.1    92    3.2   227     9.6   679.4    0.00 
  57   18:10   0.00   16.1    91    3.8   220     8.4   679.4    0.00 
  57   18:20   0.00   16.1    92    4.1   203    10.2   679.4    0.00 
  57   18:30   0.00   16.0    91    4.9   188    10.2   679.3    0.00 
  57   18:40   0.00   16.2    92    4.2   178    10.2   679.3    0.00 
  57   18:50   0.00   16.4    91    6.1   160    12.5   679.3    0.00 
  57   19:00   0.00   16.5    90    7.5   154    13.7   679.2    0.00 
  57   19:10   0.00   16.3    90    6.2   172    14.3   679.3    0.00 
  57   19:20   0.00   16.2    91    6.7   156    11.9   679.2    0.00 
  57   19:30   0.00   16.4    90    7.5   154    16.1   679.2    0.00 
  57   19:40   0.00   16.5    91    7.6   160    15.5   679.1    0.00 
  57   19:50   0.00   16.4    90    6.9   162    13.1   679.1    0.00 
  57   20:00   0.00   15.9    90    7.3   159    15.5   679.1    0.00 
  57   20:10   0.00   15.8    90    8.8   163    23.3   679.1    0.00 
  57   20:20   0.00   15.9    91    6.8   169    13.1   679.0    0.00 
  57   20:30   0.00   15.9    91    7.3   169    15.5   678.9    0.00 
  57   20:40   0.00   16.0    91    7.2   167    16.1   679.0    0.00 
  57   20:50   0.00   15.8    91    6.8   163    13.1   678.9    0.00 
  57   21:00   0.00   15.6    91    8.4   171    18.5   678.8    0.00 
  57   21:10   0.00   15.3    91    7.1   171    14.9   678.8    0.00 
  57   21:20   0.00   15.3    91    7.9   162    14.9   678.8    0.00 
  57   21:30   0.00   14.7    91   10.2   162    20.3   678.7    0.00 
  57   21:40   0.00   14.5    91    8.3   167    15.5   678.7    0.00 
  57   21:50   0.00   14.6    91    9.4   169    20.3   678.6    0.01 
  57   22:00   0.00   14.8    91    8.8   162    19.7   678.6    0.00 
  57   22:10   0.00   14.7    91    8.7   162    18.5   678.5    0.00 
  57   22:20   0.00   15.2    92    8.8   165    14.9   678.5    0.00 
  57   22:30   0.00   15.1    91    7.2   165    16.1   678.3    0.00 
  57   22:40   0.00   15.4    92    7.5   160    14.3   678.3    0.00 
  57   22:50   0.00   15.4    92    8.7   171    18.5   678.3    0.00 
  57   23:00   0.00   15.7    92    8.4   163    14.9   678.2    0.00 
  57   23:10   0.00   15.5    91    8.7   168    18.5   678.2    0.00 
  57   23:20   0.00   15.7    91    7.8   164    16.7   678.0    0.00 
  57   23:30   0.00   15.0    91    9.2   170    18.5   678.0    0.00 
  57   23:40   0.00   14.8    91    9.1   166    22.7   677.8    0.01 
  57   23:50   0.00   14.3    91    8.2   164    16.1   677.7    0.00 
  58    0:00   0.00   14.3    91    7.4   159    17.3   677.7    0.02 
  58    0:10   0.00   14.2    91    7.8   170    17.3   677.7    0.02 
  58    0:20   0.00   14.4    91    8.0   182    19.1   677.9    0.02 
  58    0:30   0.00   13.5    90    6.6   183    14.9   678.1    0.02 
  58    0:40   0.00   13.6    91    8.2   181    19.1   677.9    0.03 
  58    0:50   0.00   13.8    90    6.4   192    11.3   677.8    0.03 
  58    1:00   0.00   13.7    91    7.0   204    15.5   677.8    0.02 
  58    1:10   0.00   13.6    90    5.8   177    14.9   677.7    0.03 
  58    1:20   0.00   13.6    90    7.0   197    14.9   677.7    0.02 
  58    1:30   0.00   14.1    91    6.9   256    16.1   677.8    0.02 
  58    1:40   0.00   14.8    91    7.4   251    16.7   677.7    0.02 
  58    1:50   0.00   14.8    91    6.4   256    14.3   677.7    0.03 
  58    2:00   0.00   14.9    91    7.0   269    14.3   677.7    0.01 
  58    2:10   0.00   15.0    91    6.5   254    16.1   677.6    0.02 
  58    2:20   0.00   15.1    91    6.3   266    15.5   677.7    0.02 
  58    2:30   0.00   15.0    91    5.9   262    11.9   677.7    0.02 
  58    2:40   0.00   14.8    91    6.0   264    12.5   677.6    0.02 
  58    2:50   0.00   14.7    91    5.2   291    13.7   677.6    0.01 
  58    3:00   0.00   14.6    91    5.2   284    11.3   677.6    0.02 
  58    3:10   0.00   14.5    91    4.8   291    11.3   677.6    0.01 
  58    3:20   0.00   14.2    90    4.2   299     9.0   677.6    0.02 
  58    3:30   0.00   14.2    91    4.6   268    10.8   677.5    0.01 
  58    3:40   0.00   14.0    90    4.9   296    11.3   677.5    0.01 
  58    3:50   0.00   13.6    90    4.3   295    11.3   677.4    0.01 
  58    4:00   0.00   13.8    91    3.7   308     8.4   677.5    0.02 
  58    4:10   0.00   13.9    91    3.5   292     6.6   677.5    0.00 
  58    4:20   0.00   14.0    91    3.7   286     8.4   677.5    0.01 
  58    4:30   0.00   13.8    90    3.5   286     8.4   677.6    0.01 
  58    4:40   0.00   13.7    90    2.7   295     6.0   677.6    0.01 
  58    4:50   0.00   13.9    91    4.3   286    12.5   677.5    0.01 
  58    5:00   0.00   13.8    90    3.3   276     7.8   677.5    0.00 
  58    5:10   0.00   13.7    90    3.3   289     6.6   677.5    0.01 
  58    5:20   0.00   13.5    90    3.6   293    10.8   677.5    0.00 
  58    5:30   0.00   13.3    90    3.6   299     7.8   677.5    0.01 
  58    5:40   0.00   12.9    90    3.3   271     7.8   677.5    0.00 
  58    5:50   0.00   12.8    90    3.6   272     7.2   677.6    0.01 
  58    6:00   0.00   13.0    90    3.4   290     8.4   677.5    0.00 
  58    6:10   0.00   13.0    90    3.5   291     7.8   677.6    0.01 
  58    6:20   0.00   12.7    90    2.9   306     6.6   677.6    0.00 
  58    6:30   0.00   12.6    90    2.6   302     6.0   677.6    0.01 
  58    6:40   0.00   12.3    90    2.7   308     6.6   677.7    0.00 
  58    6:50   0.00   12.3    90    3.1   303     8.4   677.7    0.00 
  58    7:00   0.01   12.4    90    3.2   302     6.6   677.8    0.01 
  58    7:10   0.01   13.0    91    3.2   308     6.6   677.9    0.00 
  58    7:20   0.04   13.6    91    2.8   288     6.0   678.0    0.00 

Return to Redondo, Valles Caldera graphs page.


Western Regional Climate Center,wrcc@dri.edu